createdAt,value
2022-11-29T00:02:01.684Z,100172.38
2022-11-29T00:07:03.287Z,100172.41
2022-11-29T00:12:13.977Z,100174.06
2022-11-29T00:17:15.478Z,100170.66
2022-11-29T00:22:17.049Z,100164.75
2022-11-29T00:27:18.510Z,100168.09
2022-11-29T00:32:19.937Z,100171.34
2022-11-29T00:37:21.388Z,100173.06
2022-11-29T00:42:23.024Z,100166.25
2022-11-29T00:47:24.516Z,100176.38
2022-11-29T00:52:25.991Z,100176.44
2022-11-29T00:57:27.473Z,100179.00
2022-11-29T01:02:28.951Z,100180.66
2022-11-29T01:07:30.442Z,100189.28
2022-11-29T01:12:35.768Z,100185.16
2022-11-29T01:17:39.151Z,100192.72
2022-11-29T01:22:41.057Z,100189.38
2022-11-29T01:27:42.547Z,100191.94
2022-11-29T01:32:44.022Z,100187.63
2022-11-29T01:37:45.499Z,100192.72
2022-11-29T01:42:47.004Z,100196.06
2022-11-29T01:47:52.031Z,100186.69
2022-11-29T01:52:53.589Z,100192.66
2022-11-29T01:57:54.998Z,100195.22
2022-11-29T02:03:01.699Z,100195.22
2022-11-29T02:08:03.259Z,100191.72
2022-11-29T02:13:23.824Z,100194.28
2022-11-29T02:18:43.699Z,100197.66
2022-11-29T02:24:00.819Z,100194.38
2022-11-29T02:29:11.952Z,100187.53
2022-11-29T02:34:42.821Z,100186.69
2022-11-29T02:39:56.652Z,100187.75
2022-11-29T02:45:14.485Z,100183.53
2022-11-29T02:50:39.365Z,100193.72
2022-11-29T02:55:52.526Z,100193.69
2022-11-29T03:01:09.955Z,100197.03
2022-11-29T03:06:11.354Z,100190.38
2022-11-29T03:11:27.721Z,100206.69
2022-11-29T03:17:12.916Z,100205.84
2022-11-29T03:22:32.662Z,100211.88
2022-11-29T03:27:46.295Z,100211.00
2022-11-29T03:32:55.793Z,100211.13
2022-11-29T03:38:14.879Z,100219.69
2022-11-29T03:43:23.661Z,100219.09
2022-11-29T03:48:25.097Z,100224.28
2022-11-29T03:53:50.726Z,100229.34
2022-11-29T03:58:57.440Z,100230.03
2022-11-29T04:04:10.990Z,100229.03
2022-11-29T04:09:21.678Z,100235.97
2022-11-29T04:14:41.461Z,100226.78
2022-11-29T04:19:57.983Z,100242.72
2022-11-29T04:25:28.494Z,100245.25
2022-11-29T04:30:44.499Z,100248.75
2022-11-29T04:35:51.989Z,100256.50
2022-11-29T04:41:11.079Z,100266.69
2022-11-29T04:46:27.947Z,100264.06
2022-11-29T04:52:04.923Z,100267.59
2022-11-29T04:57:25.415Z,100274.47
2022-11-29T05:02:56.019Z,100266.75
2022-11-29T05:08:12.842Z,100275.34
2022-11-29T05:13:31.359Z,100278.81
2022-11-29T05:18:54.171Z,100289.78
2022-11-29T05:24:11.044Z,100284.63
2022-11-29T05:29:32.755Z,100296.28
2022-11-29T05:35:09.879Z,100295.41
2022-11-29T05:40:38.788Z,100298.81
2022-11-29T05:45:52.530Z,100299.69
2022-11-29T05:51:09.163Z,100298.75
2022-11-29T05:56:29.392Z,100310.66
2022-11-29T06:01:58.835Z,100314.09
2022-11-29T06:07:12.041Z,100314.88
2022-11-29T06:12:21.079Z,100320.78
2022-11-29T06:17:42.166Z,100332.47
2022-11-29T06:22:50.465Z,100335.75
2022-11-29T06:28:10.496Z,100338.28
2022-11-29T06:33:22.935Z,100340.69
2022-11-29T06:38:30.140Z,100344.03
2022-11-29T06:43:31.966Z,100349.25
2022-11-29T06:48:45.720Z,100340.09
2022-11-29T06:54:02.645Z,100345.31
2022-11-29T06:59:25.827Z,100359.56
2022-11-29T07:04:46.273Z,100358.00
2022-11-29T07:09:52.140Z,100366.59
2022-11-29T07:14:53.960Z,100365.75
2022-11-29T07:20:31.121Z,100370.81
2022-11-29T07:25:48.653Z,100381.84
2022-11-29T07:31:09.175Z,100380.94
2022-11-29T07:36:16.666Z,100391.03
2022-11-29T07:41:29.876Z,100394.34
2022-11-29T07:46:31.409Z,100396.81
2022-11-29T07:51:32.987Z,100399.25
2022-11-29T07:56:34.463Z,100392.28
2022-11-29T08:01:36.041Z,100403.09
2022-11-29T08:06:38.094Z,100401.16
2022-11-29T08:11:40.016Z,100410.38
2022-11-29T08:16:41.592Z,100410.16
2022-11-29T08:21:46.944Z,100410.03
2022-11-29T08:26:49.010Z,100417.44
2022-11-29T08:31:53.579Z,100420.59
2022-11-29T08:36:56.465Z,100432.41
2022-11-29T08:41:58.036Z,100432.41
2022-11-29T08:47:17.929Z,100434.03
2022-11-29T08:52:37.861Z,100444.16
2022-11-29T08:57:40.748Z,100450.97
2022-11-29T09:02:42.914Z,100456.97
2022-11-29T09:07:44.578Z,100449.25
2022-11-29T09:12:46.369Z,100465.31
2022-11-29T09:17:47.831Z,100467.72
2022-11-29T09:22:49.437Z,100470.97
2022-11-29T09:27:51.766Z,100477.69
2022-11-29T09:32:53.206Z,100481.88
2022-11-29T09:37:54.714Z,100480.94
2022-11-29T09:43:19.162Z,100490.22
2022-11-29T09:48:31.046Z,100500.38
2022-11-29T09:53:44.705Z,100498.69
2022-11-29T09:58:54.686Z,100504.56
2022-11-29T10:04:05.661Z,100504.53
2022-11-29T10:09:13.240Z,100505.19
2022-11-29T10:14:22.498Z,100511.03
2022-11-29T10:19:39.026Z,100512.63
2022-11-29T10:24:44.955Z,100510.75
2022-11-29T10:29:50.292Z,100509.72
2022-11-29T10:34:52.286Z,100500.38
2022-11-29T10:40:02.055Z,100512.78
2022-11-29T10:45:05.404Z,100514.28
2022-11-29T10:50:07.699Z,100511.06
2022-11-29T10:55:14.465Z,100504.59
2022-11-29T11:00:16.479Z,100502.16
2022-11-29T11:05:26.523Z,100496.22
2022-11-29T11:10:30.875Z,100502.25
2022-11-29T11:15:33.066Z,100494.66
2022-11-29T11:20:41.095Z,100496.50
2022-11-29T11:25:42.596Z,100493.97
2022-11-29T11:30:58.862Z,100488.00
2022-11-29T11:36:22.218Z,100500.59
2022-11-29T11:41:45.158Z,100505.34
2022-11-29T11:46:50.508Z,100506.06
2022-11-29T11:51:52.214Z,100510.88
2022-11-29T11:56:53.760Z,100515.84
2022-11-29T12:01:55.311Z,100514.03
2022-11-29T12:07:00.508Z,100514.72
2022-11-29T12:12:23.724Z,100515.44
2022-11-29T12:17:38.328Z,100509.50
2022-11-29T12:23:03.697Z,100524.53
2022-11-29T12:28:19.848Z,100527.06
2022-11-29T12:33:47.150Z,100525.22
2022-11-29T12:39:11.194Z,100527.53
2022-11-29T12:44:38.280Z,100526.34
2022-11-29T12:50:13.325Z,100531.09
2022-11-29T12:55:21.006Z,100530.16
2022-11-29T13:00:23.206Z,100531.06
2022-11-29T13:05:42.595Z,100525.25
2022-11-29T13:11:09.313Z,100538.31
2022-11-29T13:16:47.818Z,100541.84
2022-11-29T13:22:11.225Z,100541.03
2022-11-29T13:27:44.839Z,100544.63
2022-11-29T13:33:14.358Z,100543.34
2022-11-29T13:38:37.057Z,100539.63
2022-11-29T13:43:49.146Z,100548.25
2022-11-29T13:48:53.502Z,100549.03
2022-11-29T13:53:56.665Z,100543.84
2022-11-29T13:59:00.997Z,100551.47
2022-11-29T14:04:06.855Z,100554.78
2022-11-29T14:09:23.390Z,100558.31
2022-11-29T14:14:31.464Z,100554.84
2022-11-29T14:19:37.224Z,100561.53
2022-11-29T14:24:40.103Z,100563.53
2022-11-29T14:29:47.374Z,100567.22
2022-11-29T14:34:57.958Z,100567.97
2022-11-29T14:40:02.200Z,100567.22
2022-11-29T14:45:20.951Z,100569.88
2022-11-29T14:50:32.446Z,100574.88
2022-11-29T14:55:36.990Z,100574.75
2022-11-29T15:01:08.170Z,100579.13
2022-11-29T15:06:23.262Z,100580.72
2022-11-29T15:11:36.901Z,100583.22
2022-11-29T15:16:59.677Z,100600.09
2022-11-29T15:22:16.948Z,100594.94
2022-11-29T15:27:18.881Z,100592.41
2022-11-29T15:32:31.384Z,100603.38
2022-11-29T15:37:36.588Z,100604.38
2022-11-29T15:42:40.887Z,100616.28
2022-11-29T15:47:42.387Z,100618.03
2022-11-29T15:52:44.288Z,100618.03
2022-11-29T15:57:51.007Z,100624.81
2022-11-29T16:02:59.572Z,100635.94
2022-11-29T16:08:04.864Z,100636.03
2022-11-29T16:13:27.543Z,100628.53
2022-11-29T16:18:28.991Z,100639.69
2022-11-29T16:23:41.413Z,100637.25
2022-11-29T16:28:45.587Z,100644.13
2022-11-29T16:33:49.191Z,100640.69
2022-11-29T16:38:58.200Z,100648.41
2022-11-29T16:44:03.267Z,100650.22
2022-11-29T16:49:31.908Z,100643.50
2022-11-29T16:54:34.347Z,100646.94
2022-11-29T16:59:38.647Z,100655.41
2022-11-29T17:04:40.702Z,100652.22
2022-11-29T17:09:42.684Z,100659.84
2022-11-29T17:14:44.450Z,100658.84
2022-11-29T17:19:46.191Z,100653.69
2022-11-29T17:24:48.641Z,100662.88
2022-11-29T17:29:50.235Z,100663.84
2022-11-29T17:34:51.839Z,100663.91
2022-11-29T17:39:53.306Z,100666.47
2022-11-29T17:44:54.778Z,100666.63
2022-11-29T17:49:56.293Z,100668.41
2022-11-29T17:54:57.755Z,100676.97
2022-11-29T17:59:59.261Z,100680.41
2022-11-29T18:05:00.831Z,100688.09
2022-11-29T18:10:02.410Z,100688.91
2022-11-29T18:15:05.352Z,100698.09
2022-11-29T18:20:07.545Z,100698.09
2022-11-29T18:25:36.877Z,100698.78
2022-11-29T18:30:30.868Z,100698.69
2022-11-29T18:35:32.334Z,100699.44
2022-11-29T18:40:33.812Z,100700.28
2022-11-29T18:45:38.281Z,100698.56
2022-11-29T18:50:39.840Z,100704.47
2022-11-29T18:55:41.363Z,100706.13
2022-11-29T19:00:43.282Z,100709.53
2022-11-29T19:05:52.962Z,100705.41
2022-11-29T19:10:54.491Z,100705.56
2022-11-29T19:15:56.199Z,100701.53
2022-11-29T19:21:05.354Z,100708.53
2022-11-29T19:26:09.774Z,100706.94
2022-11-29T19:31:13.249Z,100717.22
2022-11-29T19:36:22.428Z,100719.75
2022-11-29T19:41:26.937Z,100724.03
2022-11-29T19:46:40.245Z,100723.16
2022-11-29T19:51:41.877Z,100723.13
2022-11-29T19:56:43.679Z,100727.38
2022-11-29T20:01:45.328Z,100721.47
2022-11-29T20:06:47.564Z,100717.19
2022-11-29T20:11:49.024Z,100721.31
2022-11-29T20:16:50.537Z,100729.69
2022-11-29T20:21:52.096Z,100727.09
2022-11-29T20:26:53.677Z,100729.72
2022-11-29T20:31:55.253Z,100735.72
2022-11-29T20:36:59.741Z,100734.94
2022-11-29T20:42:29.559Z,100729.91
2022-11-29T20:47:40.209Z,100745.13
2022-11-29T20:53:00.513Z,100744.25
2022-11-29T20:58:02.162Z,100746.78
2022-11-29T21:03:03.741Z,100757.00
2022-11-29T21:08:05.499Z,100751.97
2022-11-29T21:13:07.697Z,100753.72
2022-11-29T21:18:20.493Z,100755.38
2022-11-29T21:23:39.394Z,100762.16
2022-11-29T21:28:55.441Z,100757.16
2022-11-29T21:33:57.697Z,100757.94
2022-11-29T21:39:03.646Z,100757.06
2022-11-29T21:44:08.024Z,100761.25
2022-11-29T21:49:09.859Z,100759.44
2022-11-29T21:54:11.345Z,100755.97
2022-11-29T21:59:12.878Z,100761.06
2022-11-29T22:04:14.425Z,100759.53
2022-11-29T22:09:16.146Z,100773.22
2022-11-29T22:14:20.680Z,100771.53
2022-11-29T22:19:29.463Z,100773.09
2022-11-29T22:24:34.788Z,100775.56
2022-11-29T22:29:36.236Z,100781.41
2022-11-29T22:34:37.752Z,100778.97
2022-11-29T22:39:39.240Z,100769.03
2022-11-29T22:44:40.777Z,100775.19
2022-11-29T22:49:44.477Z,100771.06
2022-11-29T22:54:46.194Z,100774.38
2022-11-29T22:59:47.854Z,100781.06
2022-11-29T23:04:49.607Z,100780.97
2022-11-29T23:09:51.098Z,100771.75
2022-11-29T23:14:56.384Z,100771.81
2022-11-29T23:19:58.442Z,100766.88
2022-11-29T23:25:00.001Z,100763.66
2022-11-29T23:30:01.565Z,100765.44
2022-11-29T23:35:03.168Z,100776.50
2022-11-29T23:40:05.901Z,100775.66
2022-11-29T23:45:07.562Z,100769.75
2022-11-29T23:50:10.647Z,100767.28
2022-11-29T23:55:14.461Z,100763.16
